Time;durP1;ratioP1;P1;durP2;ratioP2;P2;SDS_P1;SDS_P2;PMS_P1;PMS_P2;Temp;Humidity;BMP_temperature;BMP_pressure;BME280_temperature;BME280_humidity;BME280_pressure;Samples;Min_cycle;Max_cycle;Signal;HPM_P1;HPM_P2
2021/11/01 00:00:20;;;;;;;4.90;2.70;;;;;;;;;;5040463;28;20495;-72
2021/11/01 00:02:45;;;;;;;3.58;2.50;;;;;;;;;;5046395;28;20028;-71
2021/11/01 00:05:11;;;;;;;5.50;2.72;;;;;;;;;;5049129;28;20424;-71
2021/11/01 00:07:36;;;;;;;5.18;2.92;;;;;;;;;;5041866;28;20047;-71
2021/11/01 00:10:02;;;;;;;3.85;2.65;;;;;;;;;;5041435;28;20033;-71
2021/11/01 00:12:30;;;;;;;3.95;2.70;;;;;;;;;;5045723;28;20015;-72
2021/11/01 00:14:55;;;;;;;4.65;2.90;;;;;;;;;;5046659;28;20509;-72
2021/11/01 00:17:22;;;;;;;4.55;2.90;;;;;;;;;;5048303;28;20025;-71
2021/11/01 00:19:47;;;;;;;4.80;2.60;;;;;;;;;;5050963;28;20082;-71
2021/11/01 00:22:12;;;;;;;3.90;2.28;;;;;;;;;;5040180;28;20935;-72
2021/11/01 00:24:37;;;;;;;3.78;2.47;;;;;;;;;;5045632;28;20041;-71
2021/11/01 00:27:03;;;;;;;5.03;2.40;;;;;;;;;;5041159;28;20105;-72
2021/11/01 00:29:28;;;;;;;4.65;2.50;;;;;;;;;;5042392;28;20028;-74
2021/11/01 00:31:53;;;;;;;4.00;2.40;;;;;;;;;;5043110;28;20054;-71
2021/11/01 00:34:20;;;;;;;4.25;2.60;;;;;;;;;;5043824;28;20460;-71
2021/11/01 00:36:45;;;;;;;4.18;2.42;;;;;;;;;;5044309;28;20032;-71
2021/11/01 00:39:10;;;;;;;3.83;2.88;;;;;;;;;;5046548;28;20092;-71
2021/11/01 00:41:35;;;;;;;4.13;2.72;;;;;;;;;;5039318;28;20041;-71
2021/11/01 00:44:00;;;;;;;4.00;2.38;;;;;;;;;;5042138;28;20079;-71
2021/11/01 00:46:26;;;;;;;5.13;2.85;;;;;;;;;;5041236;28;20460;-72
2021/11/01 00:48:52;;;;;;;3.80;2.40;;;;;;;;;;5044478;28;20031;-71
2021/11/01 00:51:17;;;;;;;4.47;2.50;;;;;;;;;;5040329;28;20215;-71
2021/11/01 00:53:47;;;;;;;4.38;2.85;;;;;;;;;;5047197;28;20025;-72
2021/11/01 00:56:13;;;;;;;4.07;2.50;;;;;;;;;;5046320;28;20110;-71
2021/11/01 00:58:39;;;;;;;4.30;2.47;;;;;;;;;;5044487;28;20048;-72
2021/11/01 01:01:04;;;;;;;4.03;2.75;;;;;;;;;;5043442;28;20033;-71
2021/11/01 01:03:31;;;;;;;4.25;2.60;;;;;;;;;;5044950;28;20029;-71
2021/11/01 01:05:58;;;;;;;5.85;2.80;;;;;;;;;;5043931;28;20032;-71
2021/11/01 01:08:23;;;;;;;5.60;3.60;;;;;;;;;;5047686;28;20020;-71
2021/11/01 01:10:48;;;;;;;5.07;3.22;;;;;;;;;;5046090;28;20396;-72
2021/11/01 01:13:17;;;;;;;4.53;3.10;;;;;;;;;;5039599;28;20108;-72
2021/11/01 01:18:34;;;;;;;5.15;3.08;;;;;;;;;;5059905;28;20501;-70
2021/11/01 01:21:11;;;;;;;4.10;3.00;;;;;;;;;;5067337;28;20060;-71
2021/11/01 01:23:37;;;;;;;4.38;2.90;;;;;;;;;;5053881;28;20029;-71
2021/11/01 01:26:02;;;;;;;4.93;2.92;;;;;;;;;;5064441;28;20040;-70
2021/11/01 01:28:27;;;;;;;6.35;3.33;;;;;;;;;;5059464;28;20024;-71
2021/11/01 01:30:55;;;;;;;5.28;3.10;;;;;;;;;;5064507;28;20484;-72
2021/11/01 01:33:20;;;;;;;4.70;3.30;;;;;;;;;;5059957;28;20593;-71
2021/11/01 01:35:45;;;;;;;5.32;3.17;;;;;;;;;;5063844;28;20167;-72
2021/11/01 01:38:11;;;;;;;4.47;3.03;;;;;;;;;;5057883;28;20139;-71
2021/11/01 01:40:37;;;;;;;5.97;3.28;;;;;;;;;;5056454;28;20031;-71
2021/11/01 01:43:04;;;;;;;5.03;3.00;;;;;;;;;;5060570;28;20063;-72
2021/11/01 01:45:29;;;;;;;5.25;3.17;;;;;;;;;;5061865;28;20047;-71
2021/11/01 01:47:54;;;;;;;5.00;2.90;;;;;;;;;;5064442;28;20016;-72
2021/11/01 01:50:20;;;;;;;5.28;2.90;;;;;;;;;;5056816;28;20024;-71
2021/11/01 01:52:48;;;;;;;6.15;2.97;;;;;;;;;;5066714;28;20115;-71
2021/11/01 01:55:13;;;;;;;4.45;2.83;;;;;;;;;;5056407;28;20104;-70
2021/11/01 01:57:39;;;;;;;5.97;3.10;;;;;;;;;;5042072;28;20171;-71
2021/11/01 02:00:07;;;;;;;4.15;2.90;;;;;;;;;;5050116;28;20075;-71
2021/11/01 02:02:32;;;;;;;5.40;3.22;;;;;;;;;;5049734;28;20031;-71
2021/11/01 02:04:58;;;;;;;7.22;3.35;;;;;;;;;;5047176;28;20481;-70
2021/11/01 02:07:33;;;;;;;5.80;3.40;;;;;;;;;;5050717;28;20021;-72
2021/11/01 02:10:12;;;;;;;5.47;3.28;;;;;;;;;;5045632;28;20013;-71
2021/11/01 02:12:57;;;;;;;4.32;2.75;;;;;;;;;;5045650;28;20025;-71
2021/11/01 02:15:40;;;;;;;4.32;3.20;;;;;;;;;;5045670;28;20034;-71
2021/11/01 02:18:05;;;;;;;5.07;3.45;;;;;;;;;;5052093;28;20037;-71
2021/11/01 02:20:33;;;;;;;5.28;3.03;;;;;;;;;;5048846;28;20486;-71
2021/11/01 02:23:02;;;;;;;4.05;2.72;;;;;;;;;;5046880;28;20017;-71
2021/11/01 02:25:40;;;;;;;5.18;3.35;;;;;;;;;;5047035;28;20040;-71
2021/11/01 02:28:06;;;;;;;4.72;3.13;;;;;;;;;;5045206;28;20468;-71
2021/11/01 02:30:32;;;;;;;4.22;3.00;;;;;;;;;;5044440;28;20032;-72
2021/11/01 02:32:58;;;;;;;4.80;3.13;;;;;;;;;;5050358;28;20488;-71
2021/11/01 02:35:24;;;;;;;5.38;3.25;;;;;;;;;;5048211;28;20052;-71
2021/11/01 02:37:49;;;;;;;6.50;3.28;;;;;;;;;;5044487;28;20079;-71
2021/11/01 02:40:14;;;;;;;5.07;3.30;;;;;;;;;;5050159;28;20025;-71
2021/11/01 02:42:40;;;;;;;4.43;2.80;;;;;;;;;;5048720;28;20009;-71
2021/11/01 02:45:09;;;;;;;4.20;2.58;;;;;;;;;;5049043;28;20021;-71
2021/11/01 02:47:35;;;;;;;4.28;2.97;;;;;;;;;;5046165;28;20064;-71
2021/11/01 02:50:01;;;;;;;4.82;2.85;;;;;;;;;;5050965;28;20076;-70
2021/11/01 02:52:27;;;;;;;4.05;2.67;;;;;;;;;;5044991;28;20480;-71
2021/11/01 02:54:53;;;;;;;3.97;2.63;;;;;;;;;;5041427;28;20029;-71
2021/11/01 02:57:18;;;;;;;4.25;2.75;;;;;;;;;;5040230;28;20104;-71
2021/11/01 02:59:44;;;;;;;5.45;2.70;;;;;;;;;;5046837;28;20496;-71
2021/11/01 03:02:09;;;;;;;5.22;3.17;;;;;;;;;;5050244;28;20524;-72
2021/11/01 03:04:35;;;;;;;4.43;2.88;;;;;;;;;;5047545;28;20038;-72
2021/11/01 03:07:00;;;;;;;3.65;2.35;;;;;;;;;;5041493;28;20028;-71
2021/11/01 03:09:28;;;;;;;4.85;2.90;;;;;;;;;;5043503;28;20056;-71
2021/11/01 03:11:54;;;;;;;3.80;2.55;;;;;;;;;;5043457;28;20036;-71
2021/11/01 03:14:20;;;;;;;4.45;3.10;;;;;;;;;;5042796;28;20096;-71
2021/11/01 03:16:47;;;;;;;5.85;2.70;;;;;;;;;;5034120;28;20012;-71
2021/11/01 03:19:19;;;;;;;5.88;2.67;;;;;;;;;;5043815;28;20772;-71
2021/11/01 03:21:45;;;;;;;4.97;2.90;;;;;;;;;;5048733;28;20025;-71
2021/11/01 03:24:11;;;;;;;5.70;3.20;;;;;;;;;;5046391;28;20106;-70
2021/11/01 03:26:37;;;;;;;4.45;2.70;;;;;;;;;;5044595;28;20029;-70
2021/11/01 03:29:04;;;;;;;5.60;3.38;;;;;;;;;;5047836;28;20025;-72
2021/11/01 03:31:29;;;;;;;4.45;3.00;;;;;;;;;;5045564;28;20061;-70
2021/11/01 03:33:56;;;;;;;5.47;3.00;;;;;;;;;;5046536;28;20065;-71
2021/11/01 03:36:22;;;;;;;4.82;2.75;;;;;;;;;;5046070;28;20021;-71
2021/11/01 03:38:47;;;;;;;4.45;3.03;;;;;;;;;;5047681;28;20017;-70
2021/11/01 03:41:13;;;;;;;4.85;3.10;;;;;;;;;;5045387;28;20190;-70
2021/11/01 03:43:42;;;;;;;5.15;2.90;;;;;;;;;;5044977;28;20069;-70
2021/11/01 03:46:08;;;;;;;4.75;3.10;;;;;;;;;;5045125;28;20501;-72
2021/11/01 03:48:36;;;;;;;5.00;2.42;;;;;;;;;;5040562;28;20037;-71
2021/11/01 03:51:08;;;;;;;4.80;3.00;;;;;;;;;;5043475;28;20461;-72
2021/11/01 03:53:33;;;;;;;4.45;2.90;;;;;;;;;;5045054;28;20044;-71
2021/11/01 03:55:59;;;;;;;4.82;3.20;;;;;;;;;;5047777;28;20048;-70
2021/11/01 03:58:25;;;;;;;5.47;3.22;;;;;;;;;;5044062;28;20039;-70
2021/11/01 04:00:52;;;;;;;4.28;2.78;;;;;;;;;;5053974;28;20063;-71
2021/11/01 04:03:19;;;;;;;4.20;3.10;;;;;;;;;;5041735;28;20017;-71
2021/11/01 04:05:45;;;;;;;5.10;3.22;;;;;;;;;;5044533;28;20036;-71
2021/11/01 04:08:11;;;;;;;4.13;2.92;;;;;;;;;;5034408;28;20037;-70
2021/11/01 04:10:36;;;;;;;5.50;3.22;;;;;;;;;;5044458;28;20551;-71
2021/11/01 04:13:02;;;;;;;5.95;2.97;;;;;;;;;;5047134;28;20105;-71
2021/11/01 04:15:27;;;;;;;4.78;3.10;;;;;;;;;;5049080;28;20020;-71
2021/11/01 04:18:02;;;;;;;4.47;3.00;;;;;;;;;;5047980;28;20063;-71
2021/11/01 04:20:33;;;;;;;5.88;2.97;;;;;;;;;;5035624;28;20032;-70
2021/11/01 04:23:04;;;;;;;4.50;2.55;;;;;;;;;;5047992;28;20472;-71
2021/11/01 04:25:31;;;;;;;6.05;2.90;;;;;;;;;;5047203;28;20111;-72
2021/11/01 04:27:58;;;;;;;4.30;2.85;;;;;;;;;;5047555;28;20029;-71
2021/11/01 04:30:24;;;;;;;4.68;2.75;;;;;;;;;;5043934;28;20037;-71
2021/11/01 04:32:53;;;;;;;3.90;2.47;;;;;;;;;;5045088;28;20029;-71
2021/11/01 04:35:23;;;;;;;5.50;3.03;;;;;;;;;;5038330;28;20363;-72
2021/11/01 04:37:51;;;;;;;;;;;;;;;;;;5037438;28;20036;-71
2021/11/01 04:40:28;;;;;;;3.97;2.40;;;;;;;;;;5044104;28;19908;-71
2021/11/01 04:43:13;;;;;;;4.43;2.92;;;;;;;;;;5046371;28;20013;-71
2021/11/01 04:53:52;;;;;;;6.43;3.05;;;;;;;;;;5043686;28;20029;-71
2021/11/01 04:56:20;;;;;;;4.93;3.00;;;;;;;;;;5039456;28;20029;-72
2021/11/01 04:58:46;;;;;;;3.88;2.50;;;;;;;;;;5047882;28;20060;-71
2021/11/01 05:01:12;;;;;;;5.03;3.05;;;;;;;;;;5041216;28;20035;-71
2021/11/01 05:03:39;;;;;;;5.75;3.38;;;;;;;;;;5042914;28;20105;-71
2021/11/01 05:06:05;;;;;;;4.88;2.85;;;;;;;;;;5040350;28;20485;-71
2021/11/01 05:08:52;;;;;;;5.10;3.00;;;;;;;;;;5041564;28;20034;-71
2021/11/01 05:11:42;;;;;;;5.07;3.42;;;;;;;;;;5042362;28;20053;-71
2021/11/01 05:14:05;;;;;;;4.30;2.50;;;;;;;;;;5045865;28;20077;-71
2021/11/01 05:19:08;;;;;;;6.03;2.90;;;;;;;;;;5043430;28;20021;-72
2021/11/01 05:24:15;;;;;;;4.20;2.78;;;;;;;;;;5047738;28;20868;-71
2021/11/01 05:27:07;;;;;;;4.70;2.90;;;;;;;;;;5039694;28;20041;-71
2021/11/01 05:29:32;;;;;;;5.32;3.40;;;;;;;;;;5042598;28;20037;-70
2021/11/01 05:32:03;;;;;;;5.00;2.67;;;;;;;;;;5040737;28;20028;-72
2021/11/01 05:34:28;;;;;;;4.32;2.83;;;;;;;;;;5046479;28;20071;-72
2021/11/01 05:36:54;;;;;;;5.20;2.88;;;;;;;;;;5038490;28;20029;-71
2021/11/01 05:39:19;;;;;;;4.80;2.80;;;;;;;;;;5036265;28;20037;-72
2021/11/01 05:41:44;;;;;;;4.30;2.17;;;;;;;;;;5048236;28;20700;-72
2021/11/01 05:44:10;;;;;;;3.42;2.33;;;;;;;;;;5042000;28;20021;-72
2021/11/01 05:46:37;;;;;;;4.47;2.20;;;;;;;;;;5047804;28;20029;-73
2021/11/01 05:49:04;;;;;;;3.42;2.15;;;;;;;;;;5046452;28;20021;-71
2021/11/01 05:51:30;;;;;;;4.45;2.67;;;;;;;;;;5047235;28;20025;-72
2021/11/01 05:53:59;;;;;;;3.50;2.28;;;;;;;;;;5045660;28;20082;-72
2021/11/01 05:56:46;;;;;;;3.35;2.30;;;;;;;;;;5040318;28;20472;-71
2021/11/01 06:15:41;;;;;;;3.67;2.13;;;;;;;;;;5020705;28;20124;-70
2021/11/01 06:18:07;;;;;;;3.25;1.83;;;;;;;;;;5019795;28;20124;-71
2021/11/01 06:20:32;;;;;;;2.67;1.63;;;;;;;;;;5017376;28;20089;-71
2021/11/01 06:22:57;;;;;;;3.28;1.80;;;;;;;;;;5020389;28;20513;-73
2021/11/01 06:25:24;;;;;;;3.05;1.92;;;;;;;;;;5018123;28;20042;-70
2021/11/01 06:27:53;;;;;;;3.45;1.92;;;;;;;;;;5019878;28;20037;-70
2021/11/01 06:32:58;;;;;;;3.38;1.80;;;;;;;;;;5023598;28;20076;-71
2021/11/01 06:51:57;;;;;;;4.53;2.28;;;;;;;;;;4960234;28;20101;-71
2021/11/01 07:16:08;;;;;;;5.80;3.30;;;;;;;;;;4962300;28;20038;-71
2021/11/01 07:18:45;;;;;;;4.95;3.22;;;;;;;;;;4962485;28;20130;-73
2021/11/01 07:22:15;;;;;;;5.13;3.53;;;;;;;;;;4964187;28;20118;-72
2021/11/01 07:24:12;;;;;;;5.03;3.63;;;;;;;;;;5032415;28;20029;-72
2021/11/01 08:29:20;;;;;;;7.13;4.80;;;;;;;;;;5048731;28;20541;-61
2021/11/01 08:37:23;;;;;;;7.85;5.45;;;;;;;;;;5041901;28;20086;-63
2021/11/01 09:03:55;;;;;;;7.78;4.85;;;;;;;;;;5047122;28;20035;-61
2021/11/01 09:25:27;;;;;;;7.85;5.15;;;;;;;;;;5047099;28;20608;-62
2021/11/01 09:28:28;;;;;;;7.90;4.45;;;;;;;;;;5044942;28;20017;-63
2021/11/01 09:36:17;;;;;;;6.93;4.38;;;;;;;;;;5048201;28;20116;-65
2021/11/01 09:39:17;;;;;;;5.22;4.10;;;;;;;;;;5045102;28;20040;-65
2021/11/01 09:41:43;;;;;;;5.68;3.67;;;;;;;;;;5038842;28;20399;-65
2021/11/01 09:44:12;;;;;;;6.78;4.07;;;;;;;;;;5038148;28;20029;-64
2021/11/01 09:46:37;;;;;;;5.40;3.80;;;;;;;;;;5036050;28;20800;-64
2021/11/01 09:49:15;;;;;;;6.32;3.72;;;;;;;;;;5060654;28;20263;-65
2021/11/01 09:51:42;;;;;;;5.85;3.47;;;;;;;;;;5057241;28;20020;-63
2021/11/01 09:54:09;;;;;;;4.00;2.50;;;;;;;;;;5057648;28;20021;-65
2021/11/01 09:57:09;;;;;;;4.22;2.70;;;;;;;;;;5056300;28;20396;-65
2021/11/01 09:59:27;;;;;;;4.30;2.70;;;;;;;;;;5053092;28;20067;-65
2021/11/01 10:01:53;;;;;;;6.10;2.85;;;;;;;;;;5058492;28;20024;-66
2021/11/01 10:04:23;;;;;;;5.43;2.78;;;;;;;;;;5057996;28;20039;-65
2021/11/01 10:07:03;;;;;;;6.70;2.55;;;;;;;;;;5059311;28;20037;-65
2021/11/01 10:09:29;;;;;;;5.97;2.78;;;;;;;;;;5058480;28;20013;-65
2021/11/01 10:11:54;;;;;;;5.70;2.97;;;;;;;;;;5062494;28;20104;-65
2021/11/01 10:14:21;;;;;;;4.50;2.55;;;;;;;;;;5062253;28;20100;-64
2021/11/01 10:19:34;;;;;;;4.47;2.65;;;;;;;;;;5058281;28;20455;-64
2021/11/01 10:22:07;;;;;;;3.63;2.35;;;;;;;;;;5056518;28;20028;-64
2021/11/01 10:24:41;;;;;;;4.88;2.50;;;;;;;;;;5057896;28;20045;-64
2021/11/01 10:27:11;;;;;;;6.05;2.60;;;;;;;;;;5062991;28;20021;-65
2021/11/01 10:29:48;;;;;;;4.00;2.55;;;;;;;;;;5061209;28;20031;-65
2021/11/01 10:32:13;;;;;;;5.72;2.63;;;;;;;;;;5056961;28;20106;-63
2021/11/01 10:34:38;;;;;;;5.50;3.03;;;;;;;;;;5060135;28;20502;-65
2021/11/01 10:37:10;;;;;;;5.38;2.70;;;;;;;;;;5058929;28;20048;-65
2021/11/01 10:39:35;;;;;;;4.65;2.78;;;;;;;;;;5058827;28;20383;-63
2021/11/01 10:42:25;;;;;;;4.35;3.00;;;;;;;;;;5057207;28;20013;-65
2021/11/01 10:45:05;;;;;;;6.40;3.40;;;;;;;;;;5059688;28;20404;-64
2021/11/01 11:12:18;;;;;;;6.70;3.53;;;;;;;;;;5059676;28;20024;-63
2021/11/01 11:14:50;;;;;;;5.50;3.40;;;;;;;;;;5058815;28;20024;-61
2021/11/01 11:20:18;;;;;;;5.40;2.80;;;;;;;;;;5061387;28;20494;-61
2021/11/01 11:24:26;;;;;;;3.92;2.05;;;;;;;;;;5060738;28;20115;-62
2021/11/01 11:31:43;;;;;;;3.42;1.88;;;;;;;;;;5061997;28;20112;-62
2021/11/01 11:33:57;;;;;;;4.93;2.00;;;;;;;;;;5061132;28;20040;-62
2021/11/01 11:49:28;;;;;;;3.30;1.80;;;;;;;;;;5056136;28;20155;-61
2021/11/01 11:51:58;;;;;;;2.78;1.73;;;;;;;;;;5057177;28;20052;-61
2021/11/01 11:54:30;;;;;;;3.75;1.70;;;;;;;;;;5059183;28;20032;-61
2021/11/01 11:56:57;;;;;;;4.03;1.55;;;;;;;;;;5057811;28;20123;-61
2021/11/01 11:59:30;;;;;;;3.47;1.80;;;;;;;;;;5054001;28;20065;-61
2021/11/01 12:01:56;;;;;;;3.15;1.73;;;;;;;;;;5051419;28;20039;-61
2021/11/01 12:04:27;;;;;;;4.18;1.90;;;;;;;;;;5058883;28;20028;-62
2021/11/01 12:06:57;;;;;;;3.13;2.25;;;;;;;;;;5057361;28;20056;-61
2021/11/01 12:09:27;;;;;;;3.72;1.65;;;;;;;;;;5057312;28;20099;-62
2021/11/01 12:12:16;;;;;;;2.97;1.70;;;;;;;;;;5054870;28;20037;-62
2021/11/01 12:17:18;;;;;;;4.05;1.90;;;;;;;;;;5058109;28;20036;-62
2021/11/01 12:19:43;;;;;;;4.68;2.13;;;;;;;;;;5058897;28;20040;-62
2021/11/01 12:22:18;;;;;;;4.80;1.95;;;;;;;;;;5051368;28;20457;-63
2021/11/01 12:24:47;;;;;;;2.47;1.73;;;;;;;;;;5056770;28;20033;-63
2021/11/01 12:27:13;;;;;;;2.70;1.70;;;;;;;;;;5055698;28;20044;-62
2021/11/01 12:29:38;;;;;;;3.75;1.65;;;;;;;;;;5060110;28;20033;-62
2021/11/01 12:32:05;;;;;;;4.20;1.95;;;;;;;;;;5051553;28;20017;-62
2021/11/01 12:34:31;;;;;;;3.65;1.90;;;;;;;;;;5055046;28;20456;-62
2021/11/01 12:39:31;;;;;;;3.60;1.80;;;;;;;;;;5054656;28;20166;-62
2021/11/01 12:42:16;;;;;;;2.53;1.65;;;;;;;;;;5056069;28;20012;-62
2021/11/01 12:56:58;;;;;;;3.63;2.03;;;;;;;;;;5056295;28;20063;-63
2021/11/01 12:58:16;;;;;;;4.63;2.10;;;;;;;;;;5056242;28;20051;-62
2021/11/01 13:00:43;;;;;;;4.30;2.30;;;;;;;;;;5054578;28;20059;-63
2021/11/01 13:03:12;;;;;;;3.05;2.22;;;;;;;;;;5057859;28;20413;-62
2021/11/01 13:05:43;;;;;;;3.80;2.35;;;;;;;;;;5053949;28;20039;-62
2021/11/01 13:08:10;;;;;;;4.45;2.20;;;;;;;;;;5054894;28;20864;-62
2021/11/01 13:18:32;;;;;;;3.75;1.90;;;;;;;;;;5058355;28;20027;-62
2021/11/01 13:21:00;;;;;;;3.08;2.00;;;;;;;;;;5057202;28;20021;-62
2021/11/01 13:23:28;;;;;;;4.10;2.20;;;;;;;;;;5055922;28;20020;-63
2021/11/01 13:37:03;;;;;;;2.55;1.52;;;;;;;;;;5058634;28;20191;-62
2021/11/01 13:39:29;;;;;;;2.35;1.40;;;;;;;;;;5052453;28;20025;-63
2021/11/01 13:41:54;;;;;;;3.00;1.63;;;;;;;;;;5054889;28;20457;-63
2021/11/01 13:44:21;;;;;;;2.03;1.50;;;;;;;;;;5058298;28;20037;-61
2021/11/01 13:46:48;;;;;;;2.22;1.38;;;;;;;;;;5056706;28;20047;-62
2021/11/01 13:49:14;;;;;;;3.88;1.88;;;;;;;;;;5057010;28;20027;-61
2021/11/01 13:51:39;;;;;;;2.70;1.52;;;;;;;;;;5054869;28;20042;-62
2021/11/01 13:54:10;;;;;;;2.50;1.58;;;;;;;;;;5060109;28;20033;-61
2021/11/01 13:56:45;;;;;;;3.47;1.83;;;;;;;;;;5058546;28;20380;-61
2021/11/01 14:02:16;;;;;;;3.85;1.80;;;;;;;;;;5059041;28;20055;-62
2021/11/01 14:27:04;;;;;;;3.42;1.67;;;;;;;;;;5073159;28;20047;-62
2021/11/01 14:36:41;;;;;;;4.55;1.70;;;;;;;;;;5069931;28;20037;-62
2021/11/01 15:23:57;;;;;;;1.67;0.60;;;;;;;;;;5084767;28;20035;-62
2021/11/01 15:32:43;;;;;;;3.30;0.80;;;;;;;;;;4985162;28;20053;-63
2021/11/01 15:37:53;;;;;;;1.23;0.70;;;;;;;;;;4984656;28;20329;-61
2021/11/01 16:16:39;;;;;;;3.33;1.00;;;;;;;;;;4963052;28;20081;-61
2021/11/01 16:19:03;;;;;;;2.47;1.02;;;;;;;;;;4961841;28;20094;-63
2021/11/01 16:21:30;;;;;;;1.73;1.02;;;;;;;;;;5001158;28;20033;-63
2021/11/01 16:23:55;;;;;;;2.35;1.50;;;;;;;;;;5042082;28;20017;-62
2021/11/01 16:26:28;;;;;;;2.20;1.13;;;;;;;;;;5039429;28;20143;-61
2021/11/01 16:28:59;;;;;;;5.60;1.20;;;;;;;;;;5046739;28;20028;-63
2021/11/01 16:34:05;;;;;;;2.45;1.30;;;;;;;;;;5043474;28;20112;-62
2021/11/01 16:39:05;;;;;;;3.22;1.38;;;;;;;;;;5047297;28;20120;-64
2021/11/01 16:41:31;;;;;;;4.63;1.58;;;;;;;;;;5043730;28;20104;-63
2021/11/01 16:43:58;;;;;;;3.03;1.40;;;;;;;;;;5049687;28;20090;-63
2021/11/01 16:46:26;;;;;;;2.58;1.40;;;;;;;;;;5046736;28;20025;-63
2021/11/01 16:48:51;;;;;;;3.15;1.55;;;;;;;;;;5048449;28;20701;-62
2021/11/01 16:51:16;;;;;;;2.08;1.13;;;;;;;;;;5045360;28;20029;-63
2021/11/01 16:53:42;;;;;;;2.85;1.55;;;;;;;;;;5040711;28;20039;-62
2021/11/01 17:01:51;;;;;;;3.25;1.20;;;;;;;;;;5016214;28;20069;-64
2021/11/01 17:04:18;;;;;;;2.63;1.00;;;;;;;;;;5016207;28;20054;-65
2021/11/01 17:10:09;;;;;;;1.35;0.85;;;;;;;;;;5015116;28;20036;-61
2021/11/01 17:23:01;;;;;;;1.48;1.10;;;;;;;;;;5031214;28;20040;-63
2021/11/01 17:25:44;;;;;;;1.67;0.90;;;;;;;;;;5027449;28;20026;-63
2021/11/01 17:31:12;;;;;;;2.10;1.23;;;;;;;;;;5025271;28;20079;-68
2021/11/01 17:36:36;;;;;;;1.63;1.23;;;;;;;;;;5045223;28;20047;-67
2021/11/01 18:53:07;;;;;;;2.15;1.02;;;;;;;;;;5054316;28;20047;-67
2021/11/01 18:55:35;;;;;;;3.25;1.23;;;;;;;;;;5038372;28;20052;-66
2021/11/01 18:58:01;;;;;;;4.93;1.45;;;;;;;;;;5049555;28;20095;-68
2021/11/01 19:00:27;;;;;;;2.58;1.20;;;;;;;;;;5039938;28;20100;-66
2021/11/01 19:02:54;;;;;;;4.05;1.30;;;;;;;;;;5046089;28;20524;-68
2021/11/01 19:05:38;;;;;;;3.50;1.30;;;;;;;;;;5030280;28;20512;-67
2021/11/01 21:27:03;;;;;;;2.28;1.30;;;;;;;;;;5066503;28;20348;-67
2021/11/01 21:29:31;;;;;;;3.75;1.45;;;;;;;;;;5065695;28;20064;-66
2021/11/01 21:31:57;;;;;;;2.17;1.33;;;;;;;;;;5056202;28;20027;-68
2021/11/01 21:34:32;;;;;;;2.40;1.33;;;;;;;;;;5064511;28;20020;-68
2021/11/01 21:36:58;;;;;;;2.20;1.50;;;;;;;;;;5052655;28;20083;-67
2021/11/01 21:39:23;;;;;;;1.70;1.17;;;;;;;;;;5046412;28;20440;-68
2021/11/01 21:41:49;;;;;;;2.38;1.38;;;;;;;;;;5037936;28;20021;-68
2021/11/01 21:44:14;;;;;;;2.00;1.10;;;;;;;;;;5044510;28;20464;-68
2021/11/01 21:46:39;;;;;;;1.88;1.17;;;;;;;;;;5042223;28;20071;-67
2021/11/01 21:49:04;;;;;;;2.08;1.05;;;;;;;;;;5041658;28;20468;-69
2021/11/01 21:51:32;;;;;;;2.85;1.20;;;;;;;;;;5048314;28;20039;-68
2021/11/01 21:54:11;;;;;;;1.88;1.10;;;;;;;;;;5042027;28;20056;-68
2021/11/01 21:56:37;;;;;;;1.60;0.80;;;;;;;;;;5041946;28;20021;-70
2021/11/01 22:10:34;;;;;;;0.80;0.70;;;;;;;;;;5049227;28;20118;-69
2021/11/01 22:20:59;;;;;;;1.25;0.80;;;;;;;;;;5050288;28;20831;-69
2021/11/01 22:40:28;;;;;;;0.85;0.47;;;;;;;;;;5057917;28;20054;-68
2021/11/01 22:42:42;;;;;;;1.17;0.57;;;;;;;;;;5067534;28;20484;-69
2021/11/01 22:58:06;;;;;;;1.30;0.80;;;;;;;;;;5063712;28;20052;-68
2021/11/01 23:00:34;;;;;;;1.70;0.90;;;;;;;;;;5061225;28;20033;-67
2021/11/01 23:03:05;;;;;;;1.13;0.70;;;;;;;;;;5066471;28;20218;-69
2021/11/01 23:05:47;;;;;;;3.17;0.60;;;;;;;;;;5058503;28;20076;-69
2021/11/01 23:32:48;;;;;;;2.05;1.00;;;;;;;;;;5042772;28;20044;-68
2021/11/01 23:35:13;;;;;;;1.77;0.90;;;;;;;;;;5043620;28;20465;-69
2021/11/01 23:37:38;;;;;;;1.83;0.80;;;;;;;;;;5034721;28;20156;-68
2021/11/01 23:40:04;;;;;;;1.40;0.80;;;;;;;;;;5043886;28;20087;-69
2021/11/01 23:42:29;;;;;;;1.42;0.80;;;;;;;;;;5042152;28;20028;-69
2021/11/01 23:44:54;;;;;;;1.27;0.80;;;;;;;;;;5043704;28;20028;-68
2021/11/01 23:47:21;;;;;;;3.58;0.70;;;;;;;;;;5049589;28;20028;-69
2021/11/01 23:49:46;;;;;;;1.50;0.70;;;;;;;;;;5047401;28;20064;-69
2021/11/01 23:52:13;;;;;;;1.55;0.80;;;;;;;;;;5043072;28;20060;-69
2021/11/01 23:54:43;;;;;;;0.98;0.70;;;;;;;;;;5047622;28;20042;-70
2021/11/01 23:57:08;;;;;;;1.85;0.50;;;;;;;;;;5040989;28;20078;-68
2021/11/01 23:59:33;;;;;;;1.52;0.60;;;;;;;;;;5046302;28;20056;-72
